createdAt,value
2023-05-18T00:02:26.720Z,49.76
2023-05-18T00:07:34.455Z,49.83
2023-05-18T00:12:37.509Z,50.16
2023-05-18T00:17:40.449Z,49.99
2023-05-18T00:22:43.955Z,49.38
2023-05-18T00:27:49.193Z,50.37
2023-05-18T00:32:52.319Z,50.21
2023-05-18T00:37:55.208Z,50.37
2023-05-18T00:43:00.829Z,50.23
2023-05-18T00:48:04.633Z,50.05
2023-05-18T00:53:10.837Z,49.88
2023-05-18T00:58:14.596Z,49.60
2023-05-18T01:03:20.592Z,50.06
2023-05-18T01:08:25.499Z,49.92
2023-05-18T01:13:41.508Z,50.20
2023-05-18T01:18:55.130Z,50.15
2023-05-18T01:24:22.258Z,50.63
2023-05-18T01:29:27.397Z,50.74
2023-05-18T01:34:30.707Z,50.85
2023-05-18T01:39:36.756Z,50.43
2023-05-18T01:44:51.193Z,51.11
2023-05-18T01:50:06.693Z,50.79
2023-05-18T01:55:11.948Z,51.20
2023-05-18T02:00:16.925Z,51.40
2023-05-18T02:05:20.572Z,51.52
2023-05-18T02:10:24.436Z,51.58
2023-05-18T02:15:27.561Z,50.55
2023-05-18T02:20:33.682Z,50.86
2023-05-18T02:25:37.433Z,51.06
2023-05-18T02:30:40.803Z,50.71
2023-05-18T02:35:44.627Z,51.15
2023-05-18T02:40:48.290Z,50.63
2023-05-18T02:45:52.968Z,50.29
2023-05-18T02:50:56.433Z,50.11
2023-05-18T02:56:19.059Z,50.12
2023-05-18T03:01:29.125Z,50.45
2023-05-18T03:06:31.985Z,50.24
2023-05-18T03:11:34.744Z,50.12
2023-05-18T03:16:39.161Z,49.86
2023-05-18T03:21:49.745Z,49.40
2023-05-18T03:26:55.381Z,49.38
2023-05-18T03:31:58.939Z,48.79
2023-05-18T03:37:02.219Z,48.25
2023-05-18T03:42:07.116Z,48.71
2023-05-18T03:47:10.169Z,47.67
2023-05-18T03:52:15.532Z,47.29
2023-05-18T03:57:19.106Z,47.19
2023-05-18T04:02:22.308Z,47.29
2023-05-18T04:07:25.549Z,47.04
2023-05-18T04:12:46.917Z,46.94
2023-05-18T04:17:54.074Z,46.99
2023-05-18T04:23:00.438Z,46.17
2023-05-18T04:28:03.312Z,46.44
2023-05-18T04:33:07.180Z,45.68
2023-05-18T04:38:11.081Z,44.90
2023-05-18T04:43:14.798Z,44.48
2023-05-18T04:48:20.537Z,44.55
2023-05-18T04:53:24.579Z,43.65
2023-05-18T04:58:30.428Z,44.03
2023-05-18T05:03:33.867Z,42.84
2023-05-18T05:08:38.215Z,42.04
2023-05-18T05:13:41.331Z,42.62
2023-05-18T05:18:45.928Z,42.11
2023-05-18T05:23:50.893Z,41.80
2023-05-18T05:28:54.259Z,41.08
2023-05-18T05:33:57.326Z,41.67
2023-05-18T05:39:00.259Z,40.74
2023-05-18T05:44:03.592Z,40.66
2023-05-18T05:49:06.625Z,41.04
2023-05-18T05:54:10.866Z,41.24
2023-05-18T05:59:14.454Z,40.32
2023-05-18T06:04:17.732Z,40.47
2023-05-18T06:09:20.942Z,40.72
2023-05-18T06:14:24.861Z,40.18
2023-05-18T06:19:28.419Z,39.27
2023-05-18T06:24:31.574Z,38.82
2023-05-18T06:30:08.457Z,39.21
2023-05-18T06:35:30.038Z,37.35
2023-05-18T06:40:33.478Z,36.81
2023-05-18T06:45:55.792Z,35.61
2023-05-18T06:51:16.521Z,34.54
2023-05-18T06:56:22.301Z,33.63
2023-05-18T07:01:25.809Z,33.21
2023-05-18T07:06:31.573Z,33.70
2023-05-18T07:11:34.830Z,32.42
2023-05-18T07:16:38.291Z,31.40
2023-05-18T07:21:41.328Z,30.57
2023-05-18T07:26:44.362Z,31.06
2023-05-18T07:31:47.817Z,29.39
2023-05-18T07:36:50.869Z,28.79
2023-05-18T07:41:53.768Z,28.97
2023-05-18T07:46:57.119Z,30.58
2023-05-18T07:52:00.739Z,31.33
2023-05-18T07:57:04.548Z,31.43
2023-05-18T08:02:07.884Z,29.14
2023-05-18T08:07:10.986Z,29.59
2023-05-18T08:12:13.971Z,29.96
2023-05-18T08:17:16.982Z,30.84
2023-05-18T08:22:20.102Z,30.70
2023-05-18T08:27:23.097Z,30.54
2023-05-18T08:32:26.223Z,27.95
2023-05-18T08:37:29.413Z,28.78
2023-05-18T08:42:50.294Z,28.67
2023-05-18T08:47:56.918Z,28.65
2023-05-18T08:53:06.915Z,28.34
2023-05-18T08:58:14.272Z,28.16
2023-05-18T09:03:17.527Z,28.16
2023-05-18T09:08:20.886Z,28.33
2023-05-18T09:13:24.239Z,29.01
2023-05-18T09:18:28.477Z,28.25
2023-05-18T09:23:31.961Z,26.44
2023-05-18T09:28:40.907Z,26.18
2023-05-18T09:33:45.330Z,26.25
2023-05-18T09:38:48.218Z,27.12
2023-05-18T09:43:51.635Z,27.11
2023-05-18T09:48:55.286Z,26.58
2023-05-18T09:53:59.449Z,25.89
2023-05-18T09:59:12.267Z,27.04
2023-05-18T10:04:15.582Z,27.58
2023-05-18T10:09:18.595Z,27.79
2023-05-18T10:14:44.740Z,27.96
2023-05-18T10:19:50.750Z,26.58
2023-05-18T10:24:54.508Z,26.25
2023-05-18T10:30:03.985Z,25.48
2023-05-18T10:35:09.002Z,26.25
2023-05-18T10:40:13.944Z,26.99
2023-05-18T10:45:17.362Z,25.99
2023-05-18T10:50:23.061Z,25.69
2023-05-18T10:55:28.078Z,25.43
2023-05-18T11:00:35.615Z,26.14
2023-05-18T11:05:40.197Z,26.58
2023-05-18T11:10:47.430Z,27.02
2023-05-18T11:15:56.790Z,27.40
2023-05-18T11:20:59.723Z,26.99
2023-05-18T11:26:06.203Z,26.70
2023-05-18T11:31:18.183Z,26.46
2023-05-18T11:36:23.646Z,24.51
2023-05-18T11:41:44.852Z,24.67
2023-05-18T11:47:00.196Z,24.10
2023-05-18T11:52:14.026Z,25.69
2023-05-18T11:57:18.801Z,26.87
2023-05-18T12:02:32.324Z,26.65
2023-05-18T12:07:36.806Z,26.64
2023-05-18T12:12:40.375Z,26.87
2023-05-18T12:17:45.271Z,27.08
2023-05-18T12:22:50.572Z,26.37
2023-05-18T12:27:54.473Z,25.15
2023-05-18T12:32:57.832Z,24.34
2023-05-18T12:38:01.810Z,24.55
2023-05-18T12:43:05.387Z,25.59
2023-05-18T12:48:09.961Z,26.53
2023-05-18T12:53:13.540Z,26.69
2023-05-18T12:58:18.835Z,27.68
2023-05-18T13:03:23.087Z,27.95
2023-05-18T13:08:26.394Z,27.97
2023-05-18T13:13:29.480Z,28.52
2023-05-18T13:18:32.603Z,28.17
2023-05-18T13:23:35.706Z,27.64
2023-05-18T13:28:38.676Z,25.98
2023-05-18T13:33:41.616Z,24.86
2023-05-18T13:38:44.466Z,23.71
2023-05-18T13:43:47.561Z,24.39
2023-05-18T13:48:50.539Z,24.73
2023-05-18T13:53:53.536Z,25.04
2023-05-18T13:58:56.415Z,23.61
2023-05-18T14:03:59.571Z,25.37
2023-05-18T14:09:02.501Z,23.55
2023-05-18T14:14:07.152Z,24.37
2023-05-18T14:19:10.233Z,24.64
2023-05-18T14:24:15.404Z,24.58
2023-05-18T14:29:18.571Z,24.62
2023-05-18T14:34:21.506Z,25.84
2023-05-18T14:39:24.476Z,25.60
2023-05-18T14:44:27.455Z,25.24
2023-05-18T14:49:30.347Z,25.86
2023-05-18T14:54:33.261Z,25.09
2023-05-18T14:59:36.551Z,25.46
2023-05-18T15:04:39.875Z,25.73
2023-05-18T15:09:42.845Z,25.46
2023-05-18T15:14:45.832Z,25.81
2023-05-18T15:19:48.754Z,25.84
2023-05-18T15:24:51.764Z,26.62
2023-05-18T15:29:54.794Z,27.58
2023-05-18T15:34:57.648Z,27.64
2023-05-18T15:40:00.672Z,27.62
2023-05-18T15:45:03.758Z,27.96
2023-05-18T15:50:07.273Z,28.03
2023-05-18T15:55:10.241Z,28.25
2023-05-18T16:00:14.901Z,28.32
2023-05-18T16:05:18.161Z,28.61
2023-05-18T16:10:21.379Z,28.84
2023-05-18T16:15:25.336Z,30.01
2023-05-18T16:20:28.529Z,30.18
2023-05-18T16:25:32.856Z,30.93
2023-05-18T16:30:35.878Z,32.04
2023-05-18T16:35:39.434Z,32.69
2023-05-18T16:40:43.073Z,32.89
2023-05-18T16:45:46.218Z,33.54
2023-05-18T16:50:49.582Z,34.17
2023-05-18T16:55:52.832Z,34.73
2023-05-18T17:00:55.970Z,35.05
2023-05-18T17:05:58.994Z,35.49
2023-05-18T17:11:01.841Z,35.97
2023-05-18T17:16:05.230Z,36.57
2023-05-18T17:21:08.243Z,36.80
2023-05-18T17:26:11.268Z,37.34
2023-05-18T17:31:15.218Z,37.68
2023-05-18T17:36:18.453Z,38.39
2023-05-18T17:41:22.534Z,38.54
2023-05-18T17:46:25.572Z,39.18
2023-05-18T17:51:28.737Z,39.43
2023-05-18T17:56:32.898Z,40.14
2023-05-18T18:01:36.298Z,40.46
2023-05-18T18:06:39.286Z,40.99
2023-05-18T18:11:42.859Z,41.14
2023-05-18T18:16:45.970Z,41.11
2023-05-18T18:21:49.084Z,41.08
2023-05-18T18:26:52.939Z,41.95
2023-05-18T18:31:56.146Z,43.04
2023-05-18T18:36:59.567Z,43.20
2023-05-18T18:42:02.660Z,43.18
2023-05-18T18:47:05.897Z,43.83
2023-05-18T18:52:10.266Z,44.07
2023-05-18T18:57:14.236Z,44.03
2023-05-18T19:02:19.264Z,44.38
2023-05-18T19:07:22.181Z,43.94
2023-05-18T19:12:25.543Z,44.36
2023-05-18T19:17:28.722Z,44.62
2023-05-18T19:22:35.296Z,44.22
2023-05-18T19:27:38.358Z,45.94
2023-05-18T19:32:41.421Z,46.50
2023-05-18T19:37:44.554Z,47.06
2023-05-18T19:42:47.499Z,47.30
2023-05-18T19:47:50.501Z,47.24
2023-05-18T19:52:53.833Z,47.04
2023-05-18T19:57:56.726Z,46.92
2023-05-18T20:03:02.543Z,47.32
2023-05-18T20:08:07.690Z,47.45
2023-05-18T20:13:10.897Z,48.08
2023-05-18T20:18:13.845Z,48.58
2023-05-18T20:23:17.063Z,48.57
2023-05-18T20:28:20.037Z,48.35
2023-05-18T20:33:22.954Z,47.89
2023-05-18T20:38:26.158Z,47.92
2023-05-18T20:43:29.099Z,47.87
2023-05-18T20:48:32.450Z,49.63
2023-05-18T20:53:35.745Z,50.52
2023-05-18T20:58:48.822Z,50.00
2023-05-18T21:03:52.085Z,49.84
2023-05-18T21:08:55.104Z,49.13
2023-05-18T21:13:58.231Z,50.01
2023-05-18T21:19:01.279Z,49.98
2023-05-18T21:24:04.774Z,50.33
2023-05-18T21:29:10.046Z,50.32
2023-05-18T21:34:13.988Z,50.60
2023-05-18T21:39:17.173Z,50.36
2023-05-18T21:44:20.737Z,50.42
2023-05-18T21:49:23.734Z,50.35
2023-05-18T21:54:26.806Z,50.26
2023-05-18T21:59:29.840Z,50.66
2023-05-18T22:04:32.881Z,49.87
2023-05-18T22:09:36.718Z,49.72
2023-05-18T22:14:39.595Z,49.73
2023-05-18T22:19:42.470Z,49.76
2023-05-18T22:24:45.682Z,50.14
2023-05-18T22:29:48.615Z,49.90
2023-05-18T22:34:52.174Z,50.13
2023-05-18T22:39:55.521Z,50.09
2023-05-18T22:44:58.542Z,52.08
2023-05-18T22:50:01.551Z,51.31
2023-05-18T22:55:14.038Z,52.02
2023-05-18T23:00:17.840Z,50.74
2023-05-18T23:05:21.057Z,52.00
2023-05-18T23:10:26.641Z,50.83
2023-05-18T23:15:29.913Z,51.24
2023-05-18T23:20:46.251Z,51.73
2023-05-18T23:25:49.374Z,53.35
2023-05-18T23:30:52.111Z,54.51
2023-05-18T23:36:00.197Z,54.54
2023-05-18T23:41:07.471Z,55.63
2023-05-18T23:46:10.828Z,55.88
2023-05-18T23:51:19.486Z,55.40
2023-05-18T23:56:23.665Z,55.15
